Time;durP1;ratioP1;P1;durP2;ratioP2;P2;SDS_P1;SDS_P2;PMS_P1;PMS_P2;Temp;Humidity;BMP_temperature;BMP_pressure;BME280_temperature;BME280_humidity;BME280_pressure;Samples;Min_cycle;Max_cycle;Signal;HPM_P1;HPM_P2
2023/03/05 00:00:50;;;;;;;11.27;1.50;;;2.90;1.00;;;;;;5038557;28;20056;-85
2023/03/05 00:03:16;;;;;;;9.88;1.85;;;2.90;1.00;;;;;;5010539;28;20110;-85
2023/03/05 00:05:42;;;;;;;6.53;1.25;;;2.90;1.00;;;;;;5058864;28;20118;-85
2023/03/05 00:08:07;;;;;;;7.53;1.65;;;2.90;1.00;;;;;;5052208;28;20080;-87
2023/03/05 00:10:33;;;;;;;10.57;1.40;;;2.90;1.00;;;;;;5049614;28;20486;-86
2023/03/05 00:12:59;;;;;;;10.73;2.38;;;2.90;1.00;;;;;;5037559;28;20080;-86
2023/03/05 00:15:24;;;;;;;11.43;1.92;;;2.80;1.00;;;;;;5050211;28;20045;-86
2023/03/05 00:17:50;;;;;;;10.50;1.70;;;2.90;1.00;;;;;;5058162;28;20056;-86
2023/03/05 00:20:16;;;;;;;11.38;2.80;;;3.00;1.00;;;;;;5048777;28;20102;-85
2023/03/05 00:22:42;;;;;;;7.72;2.28;;;2.80;1.00;;;;;;5049508;28;20127;-86
2023/03/05 00:25:08;;;;;;;7.25;1.67;;;2.80;1.00;;;;;;5033058;28;20080;-86
2023/03/05 00:27:33;;;;;;;7.13;1.55;;;2.80;1.00;;;;;;5050002;28;20454;-86
2023/03/05 00:29:59;;;;;;;11.68;1.92;;;2.80;1.00;;;;;;5037586;28;20115;-87
2023/03/05 00:32:25;;;;;;;7.57;1.67;;;2.90;1.00;;;;;;5024446;28;20045;-86
2023/03/05 00:34:50;;;;;;;10.35;1.70;;;2.80;1.00;;;;;;5036143;28;20477;-86
2023/03/05 00:37:16;;;;;;;10.05;1.95;;;2.90;1.00;;;;;;5032277;28;20045;-86
2023/03/05 00:39:42;;;;;;;3.63;1.13;;;2.80;1.00;;;;;;5057589;28;20098;-85
2023/03/05 00:42:07;;;;;;;9.15;1.30;;;2.80;1.00;;;;;;5059975;28;20509;-86
2023/03/05 00:44:33;;;;;;;8.70;1.90;;;2.70;1.00;;;;;;5048467;28;20044;-84
2023/03/05 00:46:59;;;;;;;7.65;1.55;;;2.70;1.00;;;;;;5053398;28;20053;-86
2023/03/05 00:49:24;;;;;;;7.85;1.30;;;2.70;1.00;;;;;;5038102;28;20044;-85
2023/03/05 00:51:50;;;;;;;15.57;1.48;;;2.70;1.00;;;;;;5031391;28;20436;-85
2023/03/05 00:54:16;;;;;;;7.05;1.60;;;2.70;1.00;;;;;;5076451;28;20477;-85
2023/03/05 00:56:42;;;;;;;6.80;0.98;;;2.60;1.00;;;;;;5037058;28;20218;-85
2023/03/05 00:59:08;;;;;;;6.05;1.02;;;2.60;1.00;;;;;;5053562;28;20493;-86
2023/03/05 01:01:33;;;;;;;4.68;1.10;;;2.60;1.00;;;;;;5051384;28;20120;-85
2023/03/05 01:04:00;;;;;;;8.27;1.05;;;2.60;1.00;;;;;;5047608;28;20046;-85
2023/03/05 01:06:26;;;;;;;8.05;1.10;;;2.60;1.00;;;;;;5050977;28;20040;-86
2023/03/05 01:08:52;;;;;;;2.75;0.60;;;2.70;1.00;;;;;;5036820;28;20091;-86
2023/03/05 01:11:18;;;;;;;4.97;0.80;;;2.60;1.00;;;;;;5067412;28;20076;-85
2023/03/05 01:13:45;;;;;;;9.35;0.90;;;2.60;1.00;;;;;;5059825;28;20122;-86
2023/03/05 01:16:11;;;;;;;3.42;0.80;;;2.60;1.00;;;;;;5076983;28;20114;-85
2023/03/05 01:18:38;;;;;;;2.53;0.70;;;2.70;1.00;;;;;;5076215;28;20036;-85
2023/03/05 01:21:04;;;;;;;7.47;1.05;;;2.60;1.00;;;;;;5068456;28;20041;-85
2023/03/05 01:23:30;;;;;;;4.00;0.85;;;2.60;1.00;;;;;;5069255;28;20118;-86
2023/03/05 01:25:58;;;;;;;7.38;1.15;;;2.70;1.00;;;;;;5057775;28;20049;-86
2023/03/05 01:28:24;;;;;;;4.80;1.20;;;2.60;1.00;;;;;;5057542;28;20097;-87
2023/03/05 01:30:50;;;;;;;6.18;1.10;;;2.60;1.00;;;;;;5070936;28;20048;-86
2023/03/05 01:33:16;;;;;;;5.35;0.90;;;2.50;1.00;;;;;;5053509;28;20036;-85
2023/03/05 01:35:45;;;;;;;5.90;1.30;;;2.50;1.00;;;;;;5050684;28;20473;-85
2023/03/05 01:38:11;;;;;;;6.00;1.70;;;2.60;1.00;;;;;;5046450;28;20078;-87
2023/03/05 01:40:36;;;;;;;5.53;1.40;;;2.60;1.00;;;;;;5038151;28;20057;-85
2023/03/05 01:43:11;;;;;;;9.13;2.65;;;2.60;1.00;;;;;;5032234;28;20128;-84
2023/03/05 01:45:38;;;;;;;14.55;2.97;;;2.70;1.00;;;;;;5065023;28;20055;-85
2023/03/05 01:48:04;;;;;;;9.77;2.00;;;2.60;1.00;;;;;;5066266;28;20110;-85
2023/03/05 01:50:30;;;;;;;7.22;1.23;;;2.60;1.00;;;;;;5055502;28;20060;-84
2023/03/05 01:53:02;;;;;;;3.63;1.40;;;2.70;5.20;;;;;;5059418;28;20055;-84
2023/03/05 01:55:31;;;;;;;6.45;1.65;;;2.60;12.30;;;;;;5036984;28;20057;-85
2023/03/05 01:58:05;;;;;;;8.02;1.27;;;2.50;12.60;;;;;;5043634;28;20048;-85
2023/03/05 02:00:36;;;;;;;4.28;1.00;;;2.50;7.10;;;;;;5062282;28;20067;-86
2023/03/05 02:03:07;;;;;;;6.15;1.45;;;2.40;7.60;;;;;;5052022;28;20040;-86
2023/03/05 02:05:36;;;;;;;11.80;2.95;;;2.30;5.80;;;;;;5049713;28;20053;-86
2023/03/05 02:08:05;;;;;;;3.85;1.00;;;2.30;5.30;;;;;;5055122;28;20131;-85
2023/03/05 02:10:41;;;;;;;5.72;1.25;;;2.20;7.50;;;;;;5067966;28;20047;-86
2023/03/05 02:13:11;;;;;;;7.78;1.60;;;2.30;13.90;;;;;;5065881;28;20044;-85
2023/03/05 02:15:37;;;;;;;12.23;1.73;;;2.20;17.90;;;;;;5050687;28;20055;-85
2023/03/05 02:18:04;;;;;;;11.02;1.50;;;2.20;17.50;;;;;;5076227;28;20080;-85
2023/03/05 02:20:47;;;;;;;4.78;1.73;;;2.20;17.00;;;;;;5051704;28;20059;-85
2023/03/05 02:23:13;;;;;;;5.88;1.65;;;2.10;23.20;;;;;;5065162;28;20069;-85
2023/03/05 02:25:39;;;;;;;10.15;1.70;;;2.00;25.50;;;;;;5064427;28;20044;-85
2023/03/05 02:28:25;;;;;;;5.57;1.63;;;2.00;29.60;;;;;;5057394;28;20384;-84
2023/03/05 02:30:51;;;;;;;11.13;1.80;;;2.00;28.60;;;;;;5056576;28;20398;-84
2023/03/05 02:33:18;;;;;;;6.65;1.38;;;1.90;31.50;;;;;;5050461;28;20410;-87
2023/03/05 02:35:45;;;;;;;5.80;2.15;;;2.00;36.40;;;;;;5065705;28;20044;-85
2023/03/05 02:38:12;;;;;;;13.77;2.88;;;2.20;37.80;;;;;;5052033;28;20052;-85
2023/03/05 02:40:38;;;;;;;9.55;2.67;;;2.10;43.90;;;;;;5068574;28;20130;-85
2023/03/05 02:43:04;;;;;;;8.90;2.08;;;2.20;45.60;;;;;;5049044;28;20512;-85
2023/03/05 02:45:30;;;;;;;14.52;2.25;;;2.10;41.70;;;;;;5052050;28;20146;-84
2023/03/05 02:47:55;;;;;;;5.65;1.85;;;2.10;42.80;;;;;;5035034;28;20060;-85
2023/03/05 02:50:22;;;;;;;9.10;1.80;;;2.10;44.30;;;;;;5068160;28;20489;-84
2023/03/05 02:52:47;;;;;;;9.35;1.63;;;2.10;49.30;;;;;;5034485;28;20400;-85
2023/03/05 02:55:13;;;;;;;11.43;1.60;;;2.10;48.30;;;;;;5034512;28;20048;-85
2023/03/05 02:57:39;;;;;;;10.80;1.73;;;2.00;52.40;;;;;;5063706;28;20052;-85
2023/03/05 03:00:06;;;;;;;10.10;1.75;;;2.00;49.60;;;;;;5049936;28;20047;-84
2023/03/05 03:02:31;;;;;;;9.10;1.42;;;2.10;48.70;;;;;;5046527;28;20106;-85
2023/03/05 03:04:57;;;;;;;7.78;1.90;;;2.10;48.70;;;;;;5066599;28;20052;-84
2023/03/05 03:07:23;;;;;;;10.05;2.08;;;2.10;55.30;;;;;;5056133;28;20040;-85
2023/03/05 03:09:49;;;;;;;10.23;1.92;;;2.10;58.80;;;;;;5053247;28;20669;-84
2023/03/05 03:12:14;;;;;;;5.30;1.80;;;2.10;58.80;;;;;;5022322;28;20051;-84
2023/03/05 03:14:42;;;;;;;8.38;1.65;;;2.20;62.30;;;;;;5049065;28;20052;-85
2023/03/05 03:17:13;;;;;;;12.35;1.80;;;2.10;66.10;;;;;;5066360;28;20040;-85
2023/03/05 03:19:40;;;;;;;13.00;2.30;;;2.20;71.20;;;;;;5045065;28;20048;-84
2023/03/05 03:22:07;;;;;;;5.82;1.30;;;2.20;72.30;;;;;;5046073;28;20462;-84
2023/03/05 03:24:34;;;;;;;8.35;1.67;;;2.20;72.70;;;;;;5077987;28;20044;-84
2023/03/05 03:27:00;;;;;;;5.00;1.48;;;2.20;73.20;;;;;;5054529;28;20048;-84
2023/03/05 03:29:26;;;;;;;8.57;1.90;;;2.20;75.20;;;;;;5073863;28;20036;-86
2023/03/05 03:31:52;;;;;;;10.88;2.03;;;2.20;73.30;;;;;;5052933;28;20056;-84
2023/03/05 03:34:18;;;;;;;8.60;1.35;;;2.20;73.40;;;;;;5066737;28;20076;-85
2023/03/05 03:36:45;;;;;;;7.45;1.40;;;2.20;75.30;;;;;;5046651;28;20041;-84
2023/03/05 03:39:11;;;;;;;5.18;1.45;;;2.20;76.70;;;;;;5059168;28;20656;-85
2023/03/05 03:41:41;;;;;;;11.85;1.60;;;2.20;77.70;;;;;;5059126;28;20041;-84
2023/03/05 03:44:09;;;;;;;4.85;1.48;;;2.20;76.10;;;;;;5070941;28;20053;-84
2023/03/05 03:46:36;;;;;;;9.80;1.50;;;2.30;73.80;;;;;;5032853;28;20046;-85
2023/03/05 03:49:02;;;;;;;7.93;1.63;;;2.20;69.50;;;;;;5045512;28;20090;-84
2023/03/05 03:51:28;;;;;;;7.93;1.48;;;2.20;68.30;;;;;;5050202;28;20044;-85
2023/03/05 03:53:54;;;;;;;8.25;1.67;;;2.10;69.10;;;;;;5068779;28;20085;-85
2023/03/05 03:56:20;;;;;;;6.82;1.35;;;2.20;68.20;;;;;;5026241;28;20060;-84
2023/03/05 03:58:50;;;;;;;12.38;2.15;;;2.10;68.60;;;;;;5047803;28;20114;-84
2023/03/05 04:01:16;;;;;;;8.27;1.83;;;2.20;67.90;;;;;;5049541;28;20044;-84
2023/03/05 04:03:42;;;;;;;12.32;1.85;;;2.30;68.60;;;;;;5051820;28;20520;-84
2023/03/05 04:06:08;;;;;;;4.22;1.40;;;2.30;70.20;;;;;;5045615;28;20521;-85
2023/03/05 04:08:34;;;;;;;6.30;1.58;;;2.30;69.80;;;;;;5061932;28;20462;-84
2023/03/05 04:11:00;;;;;;;10.57;1.80;;;2.30;68.10;;;;;;5030833;28;20535;-85
2023/03/05 04:13:26;;;;;;;9.02;1.98;;;2.30;68.90;;;;;;5033697;28;20055;-84
2023/03/05 04:15:52;;;;;;;6.38;1.08;;;2.20;64.60;;;;;;5044014;28;20736;-84
2023/03/05 04:18:18;;;;;;;6.72;1.40;;;2.10;60.80;;;;;;5060229;28;20056;-84
2023/03/05 04:20:44;;;;;;;8.20;1.23;;;2.10;59.60;;;;;;5043877;28;20387;-85
2023/03/05 04:23:09;;;;;;;7.22;2.20;;;1.90;59.10;;;;;;5047615;28;20064;-85
2023/03/05 04:25:35;;;;;;;10.23;1.85;;;1.90;56.40;;;;;;5031404;28;20053;-85
2023/03/05 04:28:01;;;;;;;8.60;1.63;;;1.90;57.70;;;;;;5033112;28;20477;-84
2023/03/05 04:30:27;;;;;;;7.13;1.63;;;1.90;63.00;;;;;;5058660;28;20128;-84
2023/03/05 04:32:52;;;;;;;21.48;2.35;;;1.90;68.00;;;;;;5056973;28;20043;-84
2023/03/05 04:35:18;;;;;;;4.13;1.45;;;2.00;68.20;;;;;;5009516;28;20053;-85
2023/03/05 04:37:44;;;;;;;4.88;1.27;;;2.00;68.50;;;;;;5059069;28;20128;-84
2023/03/05 04:40:10;;;;;;;9.10;1.38;;;2.10;71.30;;;;;;5057126;28;20114;-84
2023/03/05 04:42:36;;;;;;;6.53;1.60;;;2.10;75.10;;;;;;5048238;28;20045;-85
2023/03/05 04:45:03;;;;;;;8.88;2.17;;;2.30;74.60;;;;;;5069480;28;20059;-84
2023/03/05 04:47:28;;;;;;;6.28;1.85;;;2.20;73.70;;;;;;5066981;28;20481;-84
2023/03/05 04:49:54;;;;;;;10.68;1.63;;;2.20;72.10;;;;;;5028070;28;20047;-85
2023/03/05 04:52:20;;;;;;;5.68;1.35;;;2.20;68.90;;;;;;5040802;28;20053;-85
2023/03/05 04:54:45;;;;;;;5.00;1.08;;;2.20;67.40;;;;;;5049965;28;20047;-85
2023/03/05 04:57:11;;;;;;;9.43;1.15;;;2.20;65.50;;;;;;5032284;28;20056;-84
2023/03/05 04:59:37;;;;;;;5.88;1.13;;;2.20;68.80;;;;;;5021475;28;20761;-86
2023/03/05 05:02:04;;;;;;;9.68;1.33;;;2.10;66.80;;;;;;5081940;28;20047;-84
2023/03/05 05:04:29;;;;;;;3.75;1.00;;;2.20;67.30;;;;;;5048518;28;20057;-85
2023/03/05 05:06:56;;;;;;;4.03;1.00;;;2.20;66.50;;;;;;5049183;28;20167;-85
2023/03/05 05:09:24;;;;;;;5.88;1.15;;;2.20;70.40;;;;;;5062514;28;20082;-84
2023/03/05 05:11:50;;;;;;;5.25;1.17;;;2.20;70.80;;;;;;5064894;28;20114;-84
2023/03/05 05:14:16;;;;;;;4.75;1.10;;;2.10;68.30;;;;;;5031684;28;20061;-84
2023/03/05 05:16:41;;;;;;;3.38;1.08;;;2.10;68.90;;;;;;5065908;28;20080;-85
2023/03/05 05:19:07;;;;;;;14.65;1.20;;;2.10;66.80;;;;;;5066219;28;20044;-85
2023/03/05 05:21:33;;;;;;;3.65;1.60;;;2.20;65.00;;;;;;5053104;28;20080;-85
2023/03/05 05:23:59;;;;;;;2.55;0.90;;;2.10;65.40;;;;;;5054985;28;20725;-86
2023/03/05 05:26:25;;;;;;;5.13;1.20;;;2.00;62.50;;;;;;5046257;28;20055;-86
2023/03/05 05:28:51;;;;;;;7.88;1.45;;;2.00;61.20;;;;;;5016708;28;20387;-86
2023/03/05 05:31:17;;;;;;;3.90;1.30;;;2.00;58.90;;;;;;5052324;28;20051;-86
2023/03/05 05:33:45;;;;;;;5.95;1.20;;;2.00;56.80;;;;;;5065234;28;20064;-86
2023/03/05 05:36:13;;;;;;;4.85;0.93;;;2.00;59.20;;;;;;5021475;28;20048;-85
2023/03/05 05:38:39;;;;;;;5.25;1.05;;;1.90;56.60;;;;;;5050186;28;20536;-85
2023/03/05 05:41:07;;;;;;;5.78;1.00;;;1.80;54.50;;;;;;5067089;28;20053;-85
2023/03/05 05:43:33;;;;;;;3.80;0.80;;;1.90;60.20;;;;;;5069206;28;20106;-85
2023/03/05 05:46:04;;;;;;;5.47;1.20;;;2.00;61.70;;;;;;5066898;28;20429;-85
2023/03/05 05:48:31;;;;;;;2.78;1.10;;;2.10;67.60;;;;;;5068810;28;20053;-84
2023/03/05 05:50:57;;;;;;;6.72;1.02;;;2.10;65.50;;;;;;5053259;28;20079;-85
2023/03/05 05:53:24;;;;;;;7.68;1.23;;;2.10;64.10;;;;;;5058847;28;20045;-84
2023/03/05 05:55:50;;;;;;;4.35;0.90;;;2.20;63.10;;;;;;5067889;28;20667;-84
2023/03/05 05:58:16;;;;;;;2.90;0.80;;;2.20;60.40;;;;;;5039025;28;20063;-84
2023/03/05 06:00:42;;;;;;;8.05;1.20;;;2.10;56.30;;;;;;5053706;28;20420;-85
2023/03/05 06:03:10;;;;;;;2.67;0.75;;;2.20;52.60;;;;;;5052585;28;20052;-85
2023/03/05 06:05:41;;;;;;;4.60;1.10;;;2.10;48.60;;;;;;5065935;28;20080;-86
2023/03/05 06:08:07;;;;;;;6.45;0.90;;;2.00;46.20;;;;;;5067357;28;20637;-87
2023/03/05 06:10:40;;;;;;;7.10;1.23;;;2.00;42.00;;;;;;5049434;28;20083;-86
2023/03/05 06:13:06;;;;;;;9.75;1.40;;;2.00;39.30;;;;;;5067071;28;20057;-86
2023/03/05 06:15:31;;;;;;;6.60;1.58;;;2.10;39.40;;;;;;5051918;28;20390;-86
2023/03/05 06:17:59;;;;;;;6.05;1.10;;;2.10;39.40;;;;;;5073408;28;20052;-85
2023/03/05 06:20:27;;;;;;;7.82;1.20;;;2.10;43.70;;;;;;5071927;28;20051;-86
2023/03/05 06:23:00;;;;;;;6.18;1.30;;;2.00;47.00;;;;;;5050291;28;20440;-86
2023/03/05 06:25:29;;;;;;;4.63;1.40;;;2.00;47.20;;;;;;5058479;28;20438;-86
2023/03/05 06:27:59;;;;;;;9.68;1.50;;;1.90;42.80;;;;;;5055683;28;20710;-84
2023/03/05 06:30:27;;;;;;;9.93;1.23;;;1.80;42.40;;;;;;5051217;28;20055;-84
2023/03/05 06:32:56;;;;;;;7.50;1.70;;;1.80;41.10;;;;;;5048611;28;20451;-85
2023/03/05 06:35:22;;;;;;;8.65;1.35;;;1.90;42.70;;;;;;5060539;28;20467;-85
2023/03/05 06:37:47;;;;;;;5.35;1.50;;;1.80;41.40;;;;;;5048021;28;20048;-85
2023/03/05 06:40:16;;;;;;;8.60;1.60;;;1.80;43.10;;;;;;5045590;28;20045;-85
2023/03/05 06:42:47;;;;;;;5.28;1.50;;;1.80;44.50;;;;;;5046661;28;20873;-85
2023/03/05 06:45:13;;;;;;;6.43;1.75;;;1.80;49.60;;;;;;5058180;28;21480;-85
2023/03/05 06:47:39;;;;;;;10.52;1.98;;;1.80;53.10;;;;;;5058852;28;20045;-84
2023/03/05 06:50:07;;;;;;;10.02;2.10;;;1.70;55.20;;;;;;5056483;28;20060;-84
2023/03/05 06:52:33;;;;;;;5.93;1.70;;;1.80;57.10;;;;;;5040843;28;20056;-85
2023/03/05 06:54:59;;;;;;;7.43;1.80;;;1.80;60.50;;;;;;5043249;28;20145;-84
2023/03/05 06:57:24;;;;;;;8.63;2.80;;;1.80;60.20;;;;;;5024406;28;20051;-88
2023/03/05 06:59:51;;;;;;;8.40;1.50;;;1.80;62.80;;;;;;5055943;28;20102;-90
2023/03/05 07:02:17;;;;;;;8.48;1.42;;;1.80;63.70;;;;;;5027396;28;20094;-86
2023/03/05 07:04:43;;;;;;;5.72;1.30;;;1.80;65.40;;;;;;5054328;28;20080;-84
2023/03/05 07:07:09;;;;;;;5.20;1.33;;;1.90;69.90;;;;;;5033815;28;20075;-85
2023/03/05 07:09:41;;;;;;;4.88;1.30;;;1.90;69.90;;;;;;5043426;28;20100;-86
2023/03/05 07:12:10;;;;;;;4.50;1.25;;;2.00;70.10;;;;;;5053275;28;20548;-85
2023/03/05 07:14:37;;;;;;;8.27;1.58;;;1.90;76.50;;;;;;5050995;28;20044;-86
2023/03/05 07:17:05;;;;;;;7.88;1.70;;;2.00;77.30;;;;;;5077279;28;20040;-86
2023/03/05 07:19:31;;;;;;;6.43;1.25;;;2.00;77.10;;;;;;5067836;28;20405;-85
2023/03/05 07:21:56;;;;;;;5.13;1.70;;;2.00;80.40;;;;;;5048627;28;20041;-87
2023/03/05 07:24:27;;;;;;;12.90;1.98;;;2.00;84.20;;;;;;5048197;28;20041;-86
2023/03/05 07:26:53;;;;;;;10.40;1.90;;;2.10;87.30;;;;;;5023484;28;20049;-87
2023/03/05 07:29:19;;;;;;;7.20;1.83;;;2.10;84.50;;;;;;5047055;28;20662;-84
2023/03/05 07:31:44;;;;;;;10.30;2.28;;;2.10;83.90;;;;;;5046261;28;20051;-92
2023/03/05 07:34:10;;;;;;;8.63;1.80;;;2.20;86.70;;;;;;5045460;28;20045;-92
2023/03/05 07:36:36;;;;;;;11.00;1.90;;;2.30;90.10;;;;;;5025395;28;20049;-90
2023/03/05 07:39:06;;;;;;;11.77;1.38;;;2.30;91.30;;;;;;5045801;28;20040;-89
2023/03/05 07:41:32;;;;;;;8.52;1.85;;;2.40;92.10;;;;;;5079526;28;20098;-90
2023/03/05 07:43:57;;;;;;;8.55;1.90;;;2.50;92.00;;;;;;5045015;28;20052;-86
2023/03/05 07:46:27;;;;;;;7.20;1.88;;;2.50;91.60;;;;;;5062323;28;20527;-86
2023/03/05 07:48:54;;;;;;;9.52;2.85;;;2.70;92.00;;;;;;5057937;28;20040;-86
2023/03/05 07:51:20;;;;;;;9.07;1.75;;;2.80;91.90;;;;;;5041687;28;20044;-85
2023/03/05 07:53:48;;;;;;;10.15;2.75;;;2.70;91.00;;;;;;5042053;28;20886;-88
2023/03/05 07:56:23;;;;;;;9.50;1.90;;;2.80;90.20;;;;;;5040215;28;20036;-86
2023/03/05 07:58:48;;;;;;;10.43;4.13;;;2.80;86.70;;;;;;5072273;28;20512;-86
2023/03/05 08:01:14;;;;;;;22.05;3.75;;;2.90;84.50;;;;;;5060668;28;20044;-87
2023/03/05 08:03:41;;;;;;;9.15;2.33;;;3.00;81.10;;;;;;5040779;28;20665;-85
2023/03/05 08:06:08;;;;;;;7.13;2.38;;;3.00;76.50;;;;;;5040243;28;20044;-86
2023/03/05 08:08:35;;;;;;;11.65;3.22;;;3.00;72.60;;;;;;5040597;28;20052;-84
2023/03/05 08:11:05;;;;;;;11.45;2.83;;;3.10;68.70;;;;;;5055193;28;20048;-84
2023/03/05 08:13:31;;;;;;;6.93;3.00;;;3.10;65.20;;;;;;5053885;28;20083;-85
2023/03/05 08:15:57;;;;;;;13.52;4.18;;;3.10;58.30;;;;;;5044928;28;20477;-81
2023/03/05 08:18:23;;;;;;;7.63;1.90;;;3.10;55.40;;;;;;5065937;28;20047;-81
2023/03/05 08:20:49;;;;;;;16.85;5.32;;;3.10;50.30;;;;;;5053350;28;20142;-81
2023/03/05 08:23:14;;;;;;;9.52;3.35;;;3.30;50.60;;;;;;5049037;28;20056;-82
2023/03/05 08:25:40;;;;;;;7.45;3.58;;;3.40;47.10;;;;;;5066988;28;20051;-82
2023/03/05 08:28:06;;;;;;;9.05;4.40;;;3.50;40.50;;;;;;5031261;28;20053;-82
2023/03/05 08:30:32;;;;;;;8.48;3.10;;;3.60;37.40;;;;;;5080322;28;20048;-81
2023/03/05 08:32:57;;;;;;;12.85;3.65;;;3.80;31.00;;;;;;5050618;28;20047;-83
2023/03/05 08:35:23;;;;;;;8.98;3.38;;;4.00;11.00;;;;;;5031103;28;20128;-82
2023/03/05 08:37:49;;;;;;;7.75;1.83;;;4.00;1.00;;;;;;5043971;28;20175;-83
2023/03/05 08:40:16;;;;;;;14.18;5.10;;;3.90;1.00;;;;;;5050234;28;20116;-82
2023/03/05 08:42:43;;;;;;;19.85;9.40;;;3.90;1.00;;;;;;5031424;28;20041;-82
2023/03/05 08:45:09;;;;;;;16.38;6.38;;;3.90;1.00;;;;;;5043432;28;20049;-81
2023/03/05 08:47:35;;;;;;;13.25;3.70;;;3.90;1.00;;;;;;5041780;28;20104;-81
2023/03/05 08:50:01;;;;;;;10.80;2.97;;;3.90;1.00;;;;;;5055171;28;20144;-82
2023/03/05 08:52:26;;;;;;;14.23;5.45;;;3.80;1.00;;;;;;5032088;28;20067;-82
2023/03/05 08:54:52;;;;;;;19.50;8.32;;;3.80;1.00;;;;;;5047931;28;20766;-82
2023/03/05 08:57:18;;;;;;;7.72;2.50;;;3.70;1.00;;;;;;5052484;28;20053;-82
2023/03/05 08:59:44;;;;;;;9.05;4.65;;;3.70;1.00;;;;;;5027608;28;20053;-82
2023/03/05 09:02:11;;;;;;;5.28;2.05;;;3.70;1.00;;;;;;5031049;28;20064;-82
2023/03/05 09:04:37;;;;;;;5.10;2.35;;;3.70;1.00;;;;;;5060080;28;20067;-82
2023/03/05 09:07:04;;;;;;;10.48;2.60;;;3.80;1.00;;;;;;5040815;28;20501;-81
2023/03/05 09:09:31;;;;;;;8.05;3.00;;;3.80;1.00;;;;;;5062710;28;20574;-82
2023/03/05 09:11:58;;;;;;;7.75;2.58;;;3.90;1.00;;;;;;5046977;28;20404;-82
2023/03/05 09:14:26;;;;;;;11.55;3.65;;;4.00;1.00;;;;;;5045056;28;20044;-82
2023/03/05 09:16:52;;;;;;;10.98;3.92;;;4.10;1.00;;;;;;5046376;28;20060;-82
2023/03/05 09:19:18;;;;;;;12.80;2.70;;;4.00;1.00;;;;;;5067344;28;20049;-82
2023/03/05 09:21:44;;;;;;;9.75;1.30;;;4.10;1.00;;;;;;5070358;28;20044;-83
2023/03/05 09:24:10;;;;;;;14.38;4.97;;;4.10;1.00;;;;;;5066692;28;20095;-83
2023/03/05 09:26:36;;;;;;;5.15;1.60;;;4.10;1.00;;;;;;5047310;28;20052;-83
2023/03/05 09:29:02;;;;;;;5.05;0.90;;;4.20;1.00;;;;;;5058391;28;20539;-83
2023/03/05 09:31:28;;;;;;;6.10;1.27;;;4.30;99.90;;;;;;5069447;28;20044;-83
2023/03/05 09:33:54;;;;;;;4.28;0.98;;;4.20;99.90;;;;;;5050710;28;20087;-83
2023/03/05 09:36:23;;;;;;;11.23;1.38;;;4.20;99.90;;;;;;5076656;28;20496;-83
2023/03/05 09:38:49;;;;;;;8.38;2.72;;;4.30;1.00;;;;;;5052083;28;20037;-82
2023/03/05 09:41:28;;;;;;;7.60;1.15;;;4.50;1.00;;;;;;5077824;28;20040;-83
2023/03/05 09:44:13;;;;;;;8.02;1.50;;;4.70;1.00;;;;;;5070599;28;20052;-83
2023/03/05 09:47:05;;;;;;;10.93;1.40;;;4.80;99.90;;;;;;5056469;28;20105;-83
2023/03/05 09:50:02;;;;;;;11.63;0.90;;;4.90;99.90;;;;;;5041027;28;20444;-83
2023/03/05 09:52:51;;;;;;;4.05;1.00;;;5.20;99.90;;;;;;5052152;28;20113;-83
2023/03/05 09:55:32;;;;;;;6.68;1.35;;;5.50;99.90;;;;;;5061428;28;20086;-84
2023/03/05 09:58:04;;;;;;;6.05;1.08;;;5.70;99.90;;;;;;5057306;28;20040;-83
2023/03/05 10:00:35;;;;;;;5.72;1.35;;;5.80;99.90;;;;;;5068574;28;20088;-83
2023/03/05 10:03:09;;;;;;;10.68;1.33;;;5.90;99.90;;;;;;5039486;28;20482;-83
2023/03/05 10:06:03;;;;;;;6.45;2.13;;;5.90;55.70;;;;;;5062750;28;20347;-83
2023/03/05 10:08:52;;;;;;;2.33;0.47;;;5.50;1.00;;;;;;5057162;28;20084;-83
2023/03/05 10:11:49;;;;;;;1.38;0.70;;;5.00;62.70;;;;;;5054020;28;20110;-84
2023/03/05 10:14:18;;;;;;;2.38;0.75;;;4.40;99.90;;;;;;5049552;28;20056;-84
2023/03/05 10:16:58;;;;;;;2.40;0.70;;;4.10;99.90;;;;;;5056645;28;20080;-86
2023/03/05 10:20:04;;;;;;;3.63;0.70;;;4.00;99.90;;;;;;5056327;28;20056;-87
2023/03/05 10:22:34;;;;;;;3.42;1.20;;;4.10;99.90;;;;;;5058946;28;20057;-86
2023/03/05 10:25:22;;;;;;;2.40;0.57;;;4.20;99.90;;;;;;5057821;28;20173;-88
2023/03/05 10:28:00;;;;;;;2.05;0.63;;;4.50;1.00;;;;;;5069368;28;20051;-85
2023/03/05 10:30:54;;;;;;;2.08;0.85;;;4.60;1.00;;;;;;5040708;28;20091;-86
2023/03/05 10:33:54;;;;;;;3.38;1.05;;;4.80;1.00;;;;;;5057083;28;20061;-82
2023/03/05 10:36:25;;;;;;;2.42;0.95;;;5.00;1.00;;;;;;5047314;28;20051;-84
2023/03/05 10:39:15;;;;;;;2.78;1.40;;;5.30;1.00;;;;;;5038051;28;20651;-82
2023/03/05 10:42:05;;;;;;;6.90;2.40;;;5.30;99.90;;;;;;5054375;28;20079;-83
2023/03/05 10:44:41;;;;;;;8.30;3.28;;;5.30;99.90;;;;;;5040411;28;20068;-84
2023/03/05 10:47:24;;;;;;;11.68;2.03;;;5.00;99.90;;;;;;5060646;28;20041;-83
2023/03/05 10:49:53;;;;;;;5.38;0.98;;;4.80;99.90;;;;;;5052622;28;20045;-83
2023/03/05 10:52:35;;;;;;;9.02;1.48;;;4.70;99.90;;;;;;5062029;28;20087;-82
2023/03/05 10:55:25;;;;;;;7.25;1.88;;;4.70;1.00;;;;;;5054630;28;20049;-83
2023/03/05 10:57:50;;;;;;;11.35;1.95;;;4.80;1.00;;;;;;5066160;28;20060;-83
2023/03/05 11:00:20;;;;;;;11.65;2.42;;;5.00;1.00;;;;;;5042914;28;20386;-83
2023/03/05 11:03:12;;;;;;;5.72;1.60;;;5.10;1.00;;;;;;5055959;28;20075;-82
2023/03/05 11:05:38;;;;;;;4.22;1.80;;;5.00;1.00;;;;;;5037847;28;20057;-82
2023/03/05 11:08:22;;;;;;;4.20;1.92;;;5.00;1.00;;;;;;5040146;28;20052;-83
2023/03/05 11:11:17;;;;;;;6.35;1.20;;;5.10;1.00;;;;;;5056922;28;20044;-83
2023/03/05 11:13:43;;;;;;;6.20;1.70;;;5.10;1.00;;;;;;5054036;28;20067;-84
2023/03/05 11:16:16;;;;;;;6.47;1.08;;;5.20;1.00;;;;;;5056524;28;20213;-84
2023/03/05 11:18:45;;;;;;;4.95;2.55;;;5.20;1.00;;;;;;5053825;28;20041;-85
2023/03/05 11:21:26;;;;;;;8.57;2.65;;;5.30;1.00;;;;;;5059166;28;20078;-85
2023/03/05 11:24:12;;;;;;;5.63;0.80;;;5.50;1.00;;;;;;5043559;28;20040;-85
2023/03/05 11:26:47;;;;;;;5.68;1.13;;;5.70;1.00;;;;;;5055462;28;20052;-86
2023/03/05 11:29:23;;;;;;;7.53;1.50;;;5.80;99.90;;;;;;5053885;28;20055;-84
2023/03/05 11:31:50;;;;;;;5.30;1.02;;;6.00;99.90;;;;;;5056816;28;20047;-84
2023/03/05 11:34:16;;;;;;;5.55;1.00;;;6.50;99.90;;;;;;5057271;28;20512;-87
2023/03/05 11:37:02;;;;;;;4.95;1.27;;;7.00;99.90;;;;;;5040945;28;20048;-84
2023/03/05 11:39:31;;;;;;;3.20;1.30;;;7.10;1.00;;;;;;5057138;28;20134;-86
2023/03/05 11:42:11;;;;;;;4.38;1.30;;;7.00;1.00;;;;;;5058530;28;20505;-87
2023/03/05 11:45:13;;;;;;;8.82;1.00;;;6.80;1.00;;;;;;5055536;28;20063;-87
2023/03/05 11:47:44;;;;;;;3.88;0.93;;;6.60;99.90;;;;;;5027038;28;21224;-87
2023/03/05 11:50:23;;;;;;;4.00;1.20;;;6.50;1.00;;;;;;5055799;28;20037;-87
2023/03/05 11:52:53;;;;;;;5.15;1.30;;;6.50;1.00;;;;;;5041314;28;20055;-87
2023/03/05 11:55:31;;;;;;;3.25;1.00;;;6.60;1.00;;;;;;5055588;28;20048;-87
2023/03/05 11:58:06;;;;;;;0.88;0.45;;;6.70;1.00;;;;;;5058771;28;20051;-88
2023/03/05 12:00:35;;;;;;;5.35;0.60;;;6.80;99.90;;;;;;5039851;28;20490;-87
2023/03/05 12:03:10;;;;;;;0.88;0.40;;;7.00;99.90;;;;;;5054738;28;20051;-88
2023/03/05 12:05:38;;;;;;;6.20;2.80;;;7.00;1.00;;;;;;5042675;28;20052;-87
2023/03/05 12:08:10;;;;;;;5.35;2.35;;;7.30;99.90;;;;;;5055455;28;20094;-89
2023/03/05 12:10:36;;;;;;;2.40;1.00;;;7.20;99.90;;;;;;5057384;28;20044;-91
2023/03/05 12:13:23;;;;;;;3.70;0.90;;;7.40;99.90;;;;;;5042592;28;20062;-92
2023/03/05 12:16:16;;;;;;;1.55;0.60;;;7.40;99.90;;;;;;5060082;28;20048;-88
2023/03/05 12:19:07;;;;;;;6.25;0.60;;;7.40;99.90;;;;;;5044202;28;20145;-90
2023/03/05 12:21:42;;;;;;;5.22;1.27;;;7.60;99.90;;;;;;5066175;28;20375;-91
2023/03/05 12:24:33;;;;;;;3.47;0.88;;;7.70;99.90;;;;;;5042328;28;20056;-89
2023/03/05 12:27:01;;;;;;;1.40;0.50;;;7.70;99.90;;;;;;5050216;28;20091;-90
2023/03/05 12:29:37;;;;;;;6.20;1.75;;;7.80;99.90;;;;;;5058365;28;20040;-92
2023/03/05 12:32:05;;;;;;;6.70;0.88;;;7.80;99.90;;;;;;5047265;28;20171;-91
2023/03/05 12:34:40;;;;;;;6.28;1.83;;;7.50;99.90;;;;;;5065195;28;20102;-90
2023/03/05 12:37:44;;;;;;;5.20;1.60;;;7.30;99.90;;;;;;5061684;28;20090;-91
2023/03/05 12:40:27;;;;;;;5.72;1.60;;;7.20;99.90;;;;;;5021390;28;20063;-92
2023/03/05 12:43:01;;;;;;;3.70;1.45;;;7.20;99.90;;;;;;5057560;28;20547;-90
2023/03/05 12:45:29;;;;;;;2.28;0.95;;;7.50;99.90;;;;;;5046298;28;20045;-92
2023/03/05 12:47:55;;;;;;;4.88;0.95;;;7.70;99.90;;;;;;5062672;28;20083;-88
2023/03/05 12:50:27;;;;;;;5.10;1.00;;;7.90;99.90;;;;;;5061851;28;20076;-90
2023/03/05 12:52:52;;;;;;;2.83;0.80;;;8.00;99.90;;;;;;5061411;28;20866;-92
2023/03/05 12:55:32;;;;;;;2.53;0.60;;;7.90;99.90;;;;;;5054970;28;20045;-91
2023/03/05 12:58:23;;;;;;;5.28;1.20;;;7.70;99.90;;;;;;5084474;28;20919;-90
2023/03/05 13:01:01;;;;;;;1.38;0.60;;;7.40;99.90;;;;;;5063084;28;20053;-90
2023/03/05 13:03:35;;;;;;;11.50;6.05;;;7.20;99.90;;;;;;5063304;28;20060;-90
2023/03/05 13:06:06;;;;;;;9.68;6.15;;;7.00;99.90;;;;;;5075742;28;20346;-89
2023/03/05 13:08:39;;;;;;;5.63;2.45;;;6.90;99.90;;;;;;5043851;28;20112;-92
2023/03/05 13:11:15;;;;;;;3.65;1.52;;;7.00;99.90;;;;;;5045821;28;20055;-89